• Join FlightAware (Why Join?)
  • Login
  • US Flag 
09:19AM EDT


 

Airport Tracker/Info


-or-


 

Live Flight TrackerFlight Track Log ✈ KAP202 ✈ 22-Apr-2012 ✈ TJSJ / SJU - TISX / STX

Flight Track Log - Related Links

Times and Time Zones

All times are in EDT time to prevent confusion due to time zone crossing. See the KAP202 flight status page for this flight to view local times or setup timezone preferences in your user account.

Time Position Orientation Groundspeed Altitude Reporting Facility
EDT Latitude Longitude Course Direction KTS MPH feet Rate Location/Type
08:43AM 18.4333 -65.9833 90° East 100 115 400  Level San Juan Center
08:44AM 18.4333 -65.9500 90° East 110 127 1,400 900 Climbing San Juan Center
08:45AM 18.4333 -65.9167 62° Northeast 120 138 2,200 600 Climbing San Juan Center
08:46AM 18.4500 -65.8833 90° East 130 150 2,700 540 Climbing San Juan Center
08:47AM 18.4500 -65.8500 62° Northeast 140 161 3,300 600 Climbing San Juan Center
08:48AM 18.4667 -65.8167 90° East 120 138 4,000 660 Climbing San Juan Center
08:49AM 18.4667 -65.7833 90° East 130 150 4,700 600 Climbing San Juan Center
08:50AM 18.4667 -65.7333 118° Southeast 140 161 5,300 540 Climbing San Juan Center
08:51AM 18.4500 -65.7000 118° Southeast 140 161 5,800 540 Climbing San Juan Center
08:52AM 18.4333 -65.6667 137° Southeast 130 150 6,400 540 Climbing San Juan Center
08:53AM 18.4000 -65.6333 136° Southeast 140 161 7,000 240 Climbing San Juan Center
08:54AM 18.3667 -65.6000 118° Southeast 160 184 7,000  Level San Juan Center
08:55AM 18.3500 -65.5667 136° Southeast 170 196 7,000  Level San Juan Center
08:56AM 18.3167 -65.5333 125° Southeast 170 196 7,000  Level San Juan Center
08:57AM 18.2833 -65.4833 136° Southeast 180 207 7,000  Level San Juan Center
08:58AM 18.2500 -65.4500 136° Southeast 170 196 7,000  Level San Juan Center
08:59AM 18.2167 -65.4167 125° Southeast 170 196 7,000  Level San Juan Center
09:00AM 18.1833 -65.3667 136° Southeast 170 196 7,000  Level San Juan Center
09:01AM 18.1500 -65.3333 136° Southeast 170 196 7,000  Level San Juan Center
09:02AM 18.1167 -65.3000 118° Southeast 160 184 7,000 -300 Level San Juan Center
09:03AM 18.1000 -65.2667 136° Southeast 160 184 6,500 -540 Descending San Juan Center
09:04AM 18.0667 -65.2333 125° Southeast 180 207 6,000 -600 Descending San Juan Center
09:05AM 18.0333 -65.1833 136° Southeast 180 207 5,400 -660 Descending San Juan Center
09:06AM 18.0000 -65.1500 125° Southeast 180 207 4,700 -720 Descending San Juan Center
09:07AM 17.9667 -65.1000 136° Southeast 170 196 4,000 -720 Descending San Juan Center
09:08AM 17.9333 -65.0667 109° East 180 207 3,300 -660 Descending San Juan Center
09:09AM 17.9167 -65.0167 136° Southeast 170 196 2,700 -600 Descending San Juan Center
09:10AM 17.8833 -64.9833 136° Southeast 160 184 2,200 -300 Descending San Juan Center
09:11AM 17.8500 -64.9500 155° Southeast 150 173 2,200  Level San Juan Center
09:12AM 17.8167 -64.9333 205° Southwest 150 173 2,200  Level San Juan Center
09:13AM 17.7833 -64.9500 180° South 150 173 2,200  Level San Juan Center
09:14AM 17.7333 -64.9500 180° South 140 161 2,200  Level San Juan Center
09:15AM 17.7000 -64.9500 90° East 150 173 2,200 -180 Level San Juan Center
09:16AM 17.7000 -64.9000 118° Southeast 150 173 1,900 -540 Descending San Juan Center
09:17AM 17.6833 -64.8667 62° Northeast 140 161 1,200 -660 Descending San Juan Center
09:18AM 17.7000 -64.8333 62° Northeast 150 173 600 -600 Descending San Juan Center